createdAt,value
2022-12-07T00:00:02.961Z,4.68
2022-12-07T00:01:02.710Z,4.68
2022-12-07T00:02:02.759Z,4.32
2022-12-07T00:03:02.757Z,4.55
2022-12-07T00:04:02.704Z,4.59
2022-12-07T00:05:02.702Z,4.5
2022-12-07T00:06:02.723Z,4.64
2022-12-07T00:07:02.681Z,4.53
2022-12-07T00:08:02.743Z,4.66
2022-12-07T00:09:02.675Z,4.75
2022-12-07T00:10:02.965Z,4.69
2022-12-07T00:11:02.674Z,4.71
2022-12-07T00:12:02.676Z,4.68
2022-12-07T00:13:02.694Z,4.67
2022-12-07T00:14:02.687Z,4.82
2022-12-07T00:15:02.693Z,4.63
2022-12-07T00:16:02.826Z,4.68
2022-12-07T00:17:02.739Z,4.65
2022-12-07T00:18:02.709Z,4.71
2022-12-07T00:19:02.709Z,4.56
2022-12-07T00:20:02.956Z,4.66
2022-12-07T00:21:02.691Z,4.5
2022-12-07T00:22:02.677Z,4.54
2022-12-07T00:23:02.680Z,4.48
2022-12-07T00:24:02.689Z,4.53
2022-12-07T00:25:02.703Z,4.43
2022-12-07T00:26:02.680Z,4.51
2022-12-07T00:27:02.695Z,4.6
2022-12-07T00:28:02.697Z,4.53
2022-12-07T00:29:02.703Z,4.42
2022-12-07T00:30:03.105Z,4.31
2022-12-07T00:31:02.716Z,4.31
2022-12-07T00:32:02.780Z,4.29
2022-12-07T00:33:02.698Z,4.29
2022-12-07T00:34:02.687Z,4.3
2022-12-07T00:35:02.685Z,4.25
2022-12-07T00:36:02.695Z,4.38
2022-12-07T00:37:02.694Z,4.25
2022-12-07T00:38:02.712Z,3.91
2022-12-07T00:39:02.690Z,4.13
2022-12-07T00:40:02.967Z,4
2022-12-07T00:41:02.686Z,4.04
2022-12-07T00:42:02.700Z,4.11
2022-12-07T00:43:02.717Z,4.11
2022-12-07T00:44:02.690Z,4.11
2022-12-07T00:45:02.696Z,4.06
2022-12-07T00:46:02.718Z,4.06
2022-12-07T00:47:02.683Z,4.06
2022-12-07T00:48:02.781Z,4.06
2022-12-07T00:49:02.687Z,4.06
2022-12-07T00:50:02.959Z,4.06
2022-12-07T00:51:02.692Z,4.19
2022-12-07T00:52:02.692Z,4.32
2022-12-07T00:53:02.694Z,4.18
2022-12-07T00:54:02.689Z,4.19
2022-12-07T00:55:02.696Z,4.23
2022-12-07T00:56:02.694Z,4.33
2022-12-07T00:57:02.692Z,4.25
2022-12-07T00:58:02.710Z,4.31
2022-12-07T00:59:02.683Z,4.34
2022-12-07T01:00:02.977Z,4.41
2022-12-07T01:01:02.831Z,4.41
2022-12-07T01:02:02.695Z,4.41
2022-12-07T01:03:02.758Z,4.4
2022-12-07T01:04:02.707Z,4.37
2022-12-07T01:05:02.691Z,4.43
2022-12-07T01:06:02.696Z,4.37
2022-12-07T01:07:02.696Z,4.28
2022-12-07T01:08:02.809Z,4.28
2022-12-07T01:09:02.675Z,4.28
2022-12-07T01:10:02.877Z,4.28
2022-12-07T01:11:02.677Z,4.28
2022-12-07T01:12:02.668Z,4.28
2022-12-07T01:13:02.711Z,4.28
2022-12-07T01:14:02.675Z,4.28
2022-12-07T01:15:02.679Z,4.28
2022-12-07T01:16:02.699Z,4.28
2022-12-07T01:17:02.732Z,4.28
2022-12-07T01:18:02.718Z,4.28
2022-12-07T01:19:02.672Z,4.28
2022-12-07T01:20:03.009Z,4.28
2022-12-07T01:21:02.679Z,4.28
2022-12-07T01:22:02.676Z,4.28
2022-12-07T01:23:02.718Z,4.28
2022-12-07T01:24:02.687Z,4.28
2022-12-07T01:25:02.670Z,4.28
2022-12-07T01:26:02.676Z,4.28
2022-12-07T01:27:02.673Z,4.28
2022-12-07T01:28:02.720Z,4.28
2022-12-07T01:29:02.689Z,4.28
2022-12-07T01:30:02.830Z,4.28
2022-12-07T01:31:02.792Z,4.28
2022-12-07T01:32:02.724Z,4.28
2022-12-07T01:33:02.695Z,4.28
2022-12-07T01:34:02.690Z,4.28
2022-12-07T01:35:02.700Z,4.28
2022-12-07T01:36:02.694Z,4.28
2022-12-07T01:37:02.697Z,4.28
2022-12-07T01:38:02.746Z,4.28
2022-12-07T01:39:02.706Z,4.28
2022-12-07T01:40:02.921Z,4.28
2022-12-07T01:41:02.700Z,4.28
2022-12-07T01:42:02.697Z,4.28
2022-12-07T01:43:02.696Z,4.28
2022-12-07T01:44:02.688Z,4.01
2022-12-07T01:45:02.693Z,3.95
2022-12-07T01:46:02.792Z,3.95
2022-12-07T01:47:02.705Z,3.98
2022-12-07T01:48:02.730Z,4.02
2022-12-07T01:49:02.711Z,3.92
2022-12-07T01:50:02.991Z,4.06
2022-12-07T01:51:02.687Z,4.17
2022-12-07T01:52:02.680Z,4.11
2022-12-07T01:53:02.697Z,4.11
2022-12-07T01:54:02.681Z,4.04
2022-12-07T01:55:02.710Z,4.02
2022-12-07T01:56:02.695Z,4.09
2022-12-07T01:57:02.696Z,3.99
2022-12-07T01:58:02.703Z,4.23
2022-12-07T01:59:02.690Z,4.26
2022-12-07T02:00:03.036Z,4.39
2022-12-07T02:01:02.773Z,4.39
2022-12-07T02:02:02.747Z,4.26
2022-12-07T02:03:02.809Z,4.25
2022-12-07T02:04:02.705Z,4.26
2022-12-07T02:05:02.693Z,4.26
2022-12-07T02:06:02.694Z,4.37
2022-12-07T02:07:02.676Z,4.32
2022-12-07T02:08:02.795Z,4.22
2022-12-07T02:09:02.752Z,4.34
2022-12-07T02:10:02.977Z,4.31
2022-12-07T02:11:02.692Z,4.2
2022-12-07T02:12:02.687Z,4.2
2022-12-07T02:13:02.704Z,4.2
2022-12-07T02:14:02.694Z,4.21
2022-12-07T02:15:02.684Z,4.05
2022-12-07T02:16:02.769Z,4.13
2022-12-07T02:17:02.677Z,4.02
2022-12-07T02:18:02.693Z,4.02
2022-12-07T02:19:02.696Z,4.11
2022-12-07T02:20:02.948Z,4.17
2022-12-07T02:21:02.679Z,4.27
2022-12-07T02:22:02.677Z,4.31
2022-12-07T02:23:02.713Z,4.3
2022-12-07T02:24:02.676Z,4.32
2022-12-07T02:25:02.677Z,4.38
2022-12-07T02:26:02.678Z,4.33
2022-12-07T02:27:02.678Z,4.32
2022-12-07T02:28:02.709Z,4.29
2022-12-07T02:29:02.699Z,4.25
2022-12-07T02:30:03.003Z,4.38
2022-12-07T02:31:02.742Z,4.38
2022-12-07T02:32:02.695Z,4.25
2022-12-07T02:33:02.708Z,4.11
2022-12-07T02:34:02.672Z,4.28
2022-12-07T02:35:02.676Z,4.31
2022-12-07T02:36:02.682Z,4.35
2022-12-07T02:37:02.697Z,4.24
2022-12-07T02:38:02.702Z,4.36
2022-12-07T02:39:02.686Z,4.46
2022-12-07T02:40:03.049Z,4.32
2022-12-07T02:43:02.723Z,4.26
2022-12-07T02:44:02.693Z,4.25
2022-12-07T02:45:02.702Z,4.38
2022-12-07T02:46:02.757Z,4.41
2022-12-07T02:47:02.706Z,4.43
2022-12-07T02:48:02.710Z,4.42
2022-12-07T02:49:02.696Z,4.42
2022-12-07T02:50:03.040Z,4.32
2022-12-07T02:51:02.695Z,4.29
2022-12-07T02:52:02.698Z,4.19
2022-12-07T02:53:02.705Z,4.25
2022-12-07T02:54:02.699Z,4.17
2022-12-07T02:55:02.690Z,4.32
2022-12-07T02:56:02.695Z,4.06
2022-12-07T02:57:02.693Z,4.09
2022-12-07T02:58:02.717Z,4.11
2022-12-07T02:59:02.739Z,4.29
2022-12-07T03:00:03.188Z,4.26
2022-12-07T03:01:02.715Z,4.26
2022-12-07T03:02:02.743Z,4.1
2022-12-07T03:03:02.826Z,4.29
2022-12-07T03:04:02.733Z,4.12
2022-12-07T03:05:02.702Z,4.15
2022-12-07T03:06:02.704Z,4.29
2022-12-07T03:07:02.695Z,4.02
2022-12-07T03:08:02.786Z,4.13
2022-12-07T03:09:02.695Z,4.18
2022-12-07T03:10:02.895Z,4.17
2022-12-07T03:11:02.694Z,4.23
2022-12-07T03:12:02.692Z,4.18
2022-12-07T03:13:02.710Z,4.38
2022-12-07T03:14:02.701Z,4.38
2022-12-07T03:15:02.693Z,4.6
2022-12-07T03:16:02.812Z,4.33
2022-12-07T03:17:02.704Z,4.38
2022-12-07T03:18:02.712Z,4.39
2022-12-07T03:19:02.700Z,4.51
2022-12-07T03:20:03.025Z,4.51
2022-12-07T03:21:02.696Z,4.4
2022-12-07T03:22:02.695Z,4.6
2022-12-07T03:23:02.707Z,4.7
2022-12-07T03:24:02.677Z,4.58
2022-12-07T03:25:02.682Z,4.49
2022-12-07T03:26:02.705Z,4.51
2022-12-07T03:27:02.702Z,4.45
2022-12-07T03:28:02.706Z,4.53
2022-12-07T03:29:02.683Z,4.64
2022-12-07T03:30:03.014Z,4.52
2022-12-07T03:31:02.864Z,4.45
2022-12-07T03:32:02.692Z,4.23
2022-12-07T03:33:02.717Z,4.29
2022-12-07T03:34:02.680Z,4.18
2022-12-07T03:35:02.684Z,4.16
2022-12-07T03:36:02.695Z,4.09
2022-12-07T03:37:02.686Z,4.09
2022-12-07T03:38:02.717Z,4.28
2022-12-07T03:39:02.694Z,4.47
2022-12-07T03:40:02.952Z,4.54
2022-12-07T03:41:02.679Z,4.64
2022-12-07T03:42:02.681Z,4.45
2022-12-07T03:43:02.740Z,4.36
2022-12-07T03:44:02.695Z,4.41
2022-12-07T03:45:02.682Z,4.5
2022-12-07T03:46:02.739Z,4.48
2022-12-07T03:47:02.808Z,4.39
2022-12-07T03:48:02.708Z,4.57
2022-12-07T03:49:02.700Z,4.51
2022-12-07T03:50:02.862Z,4.56
2022-12-07T03:51:02.697Z,4.46
2022-12-07T03:52:02.698Z,4.45
2022-12-07T03:53:02.715Z,4.37
2022-12-07T03:54:02.698Z,4.41
2022-12-07T03:55:02.735Z,4.41
2022-12-07T03:56:02.697Z,4.35
2022-12-07T03:57:02.694Z,4.46
2022-12-07T03:58:02.722Z,4.39
2022-12-07T03:59:02.699Z,4.37
2022-12-07T04:00:02.912Z,4.2
2022-12-07T04:01:02.719Z,4.2
2022-12-07T04:02:02.794Z,4.01
2022-12-07T04:03:02.737Z,4.13
2022-12-07T04:04:02.699Z,4.04
2022-12-07T04:05:02.694Z,4.14
2022-12-07T04:06:02.694Z,4.16
2022-12-07T04:07:02.693Z,4.13
2022-12-07T04:08:02.765Z,4.17
2022-12-07T04:09:02.698Z,4.08
2022-12-07T04:10:03.055Z,4.14
2022-12-07T04:11:02.694Z,4.04
2022-12-07T04:12:02.724Z,3.93
2022-12-07T04:13:02.704Z,4.01
2022-12-07T04:14:02.699Z,4
2022-12-07T04:15:02.703Z,3.95
2022-12-07T04:16:02.861Z,3.92
2022-12-07T04:17:02.677Z,3.83
2022-12-07T04:18:02.715Z,4.1
2022-12-07T04:19:02.697Z,4.07
2022-12-07T04:20:02.871Z,3.88
2022-12-07T04:21:02.703Z,3.81
2022-12-07T04:22:02.692Z,3.78
2022-12-07T04:23:02.733Z,3.73
2022-12-07T04:24:02.695Z,3.76
2022-12-07T04:25:02.701Z,3.69
2022-12-07T04:26:02.691Z,3.92
2022-12-07T04:27:02.696Z,3.68
2022-12-07T04:28:02.697Z,3.79
2022-12-07T04:29:07.465Z,3.83
2022-12-07T04:30:03.057Z,3.9
2022-12-07T04:31:02.777Z,3.9
2022-12-07T04:32:02.678Z,3.91
2022-12-07T04:33:02.713Z,3.97
2022-12-07T04:34:02.702Z,3.96
2022-12-07T04:35:02.681Z,4.01
2022-12-07T04:36:02.678Z,4.01
2022-12-07T04:37:02.695Z,3.97
2022-12-07T04:38:02.714Z,3.94
2022-12-07T04:39:02.691Z,3.83
2022-12-07T04:40:02.998Z,3.75
2022-12-07T04:41:02.679Z,3.78
2022-12-07T04:42:02.707Z,3.78
2022-12-07T04:43:02.710Z,3.58
2022-12-07T04:44:02.679Z,3.56
2022-12-07T04:45:02.763Z,3.56
2022-12-07T04:46:02.719Z,3.74
2022-12-07T04:47:02.786Z,3.61
2022-12-07T04:48:02.709Z,3.7
2022-12-07T04:49:02.718Z,3.56
2022-12-07T04:50:03.070Z,3.64
2022-12-07T04:51:02.681Z,3.79
2022-12-07T04:52:02.700Z,3.82
2022-12-07T04:53:02.708Z,3.86
2022-12-07T04:54:02.702Z,3.86
2022-12-07T04:55:02.703Z,3.91
2022-12-07T04:56:02.700Z,4.01
2022-12-07T04:57:02.698Z,3.98
2022-12-07T04:58:02.708Z,4.08
2022-12-07T04:59:02.695Z,4.14
2022-12-07T05:00:03.064Z,4.21
2022-12-07T05:01:02.867Z,4.21
2022-12-07T05:02:02.744Z,4.2
2022-12-07T05:03:02.726Z,4.15
2022-12-07T05:04:02.691Z,4.26
2022-12-07T05:05:02.692Z,4.3
2022-12-07T05:06:02.698Z,4.43
2022-12-07T05:07:02.698Z,4.42
2022-12-07T05:08:02.815Z,4.31
2022-12-07T05:09:02.696Z,4.35
2022-12-07T05:10:03.045Z,4.45
2022-12-07T05:11:02.694Z,4.45
2022-12-07T05:12:02.695Z,4.43
2022-12-07T05:13:02.709Z,4.38
2022-12-07T05:14:02.699Z,4.26
2022-12-07T05:15:02.703Z,4.21
2022-12-07T05:16:02.752Z,4.35
2022-12-07T05:17:02.682Z,4.44
2022-12-07T05:18:02.704Z,4.44
2022-12-07T05:19:02.696Z,4.44
2022-12-07T05:20:02.902Z,4.25
2022-12-07T05:21:02.705Z,4.2
2022-12-07T05:22:02.700Z,4.22
2022-12-07T05:23:02.707Z,4.15
2022-12-07T05:24:02.682Z,4.17
2022-12-07T05:25:02.713Z,4.09
2022-12-07T05:26:02.699Z,4.09
2022-12-07T05:27:02.716Z,3.95
2022-12-07T05:28:02.728Z,3.81
2022-12-07T05:29:02.691Z,3.79
2022-12-07T05:30:02.866Z,3.79
2022-12-07T05:31:02.702Z,3.79
2022-12-07T05:32:02.774Z,3.8
2022-12-07T05:33:02.705Z,3.8
2022-12-07T05:34:02.697Z,3.66
2022-12-07T05:35:02.700Z,3.71
2022-12-07T05:36:02.683Z,3.74
2022-12-07T05:37:02.681Z,3.8
2022-12-07T05:38:02.712Z,3.83
2022-12-07T05:39:02.687Z,3.77
2022-12-07T05:40:03.020Z,3.69
2022-12-07T05:41:02.717Z,3.69
2022-12-07T05:42:02.682Z,3.77
2022-12-07T05:43:04.531Z,3.94
2022-12-07T05:44:02.688Z,3.95
2022-12-07T05:45:02.682Z,4.04
2022-12-07T05:46:02.755Z,3.99
2022-12-07T05:47:02.678Z,3.95
2022-12-07T05:48:02.712Z,4
2022-12-07T05:49:02.686Z,4
2022-12-07T05:50:02.919Z,3.97
2022-12-07T05:51:02.683Z,3.79
2022-12-07T05:52:02.693Z,3.96
2022-12-07T05:53:02.718Z,4
2022-12-07T05:54:02.684Z,3.77
2022-12-07T05:55:02.700Z,4.09
2022-12-07T05:56:02.698Z,4.13
2022-12-07T05:57:02.677Z,4.16
2022-12-07T05:58:02.702Z,4.11
2022-12-07T05:59:02.691Z,4.1
2022-12-07T06:00:03.026Z,4.16
2022-12-07T06:01:02.702Z,4.22
2022-12-07T06:02:02.994Z,4.25
2022-12-07T06:03:02.842Z,4.27
2022-12-07T06:04:02.705Z,4.36
2022-12-07T06:05:02.698Z,4.22
2022-12-07T06:06:02.729Z,4.22
2022-12-07T06:07:02.702Z,4.13
2022-12-07T06:08:05.863Z,3.96
2022-12-07T06:09:02.698Z,3.96
2022-12-07T06:10:03.074Z,4.15
2022-12-07T06:11:02.698Z,3.96
2022-12-07T06:12:02.691Z,4.06
2022-12-07T06:13:02.704Z,4.17
2022-12-07T06:14:02.712Z,4.18
2022-12-07T06:15:02.693Z,4.14
2022-12-07T06:16:02.753Z,4.06
2022-12-07T06:17:02.790Z,3.94
2022-12-07T06:18:02.708Z,4.13
2022-12-07T06:19:02.692Z,3.97
2022-12-07T06:20:03.099Z,4.09
2022-12-07T06:21:02.688Z,4.17
2022-12-07T06:22:02.694Z,4.28
2022-12-07T06:23:02.708Z,4.35
2022-12-07T06:24:02.697Z,4.19
2022-12-07T06:25:06.991Z,4.26
2022-12-07T06:26:02.686Z,4.25
2022-12-07T06:27:02.696Z,4.28
2022-12-07T06:28:02.707Z,4.37
2022-12-07T06:29:02.702Z,4.31
2022-12-07T06:30:02.895Z,4.48
2022-12-07T06:31:02.703Z,4.48
2022-12-07T06:32:02.760Z,4.69
2022-12-07T06:33:02.713Z,4.77
2022-12-07T06:34:02.695Z,4.72
2022-12-07T06:35:02.689Z,4.79
2022-12-07T06:36:02.695Z,4.8
2022-12-07T06:37:02.697Z,4.57
2022-12-07T06:38:02.704Z,4.45
2022-12-07T06:39:02.698Z,4.48
2022-12-07T06:40:03.028Z,4.39
2022-12-07T06:41:02.692Z,4.23
2022-12-07T06:42:02.701Z,4.08
2022-12-07T06:43:02.702Z,4.24
2022-12-07T06:44:02.699Z,4.18
2022-12-07T06:45:02.697Z,4.19
2022-12-07T06:46:02.739Z,4.3
2022-12-07T06:47:31.949Z,4.14
2022-12-07T06:48:02.713Z,4.28
2022-12-07T06:49:02.678Z,4.31
2022-12-07T06:50:03.047Z,4.37
2022-12-07T06:51:02.682Z,4.29
2022-12-07T06:52:02.675Z,4.37
2022-12-07T06:53:02.714Z,4.37
2022-12-07T06:54:02.690Z,4.63
2022-12-07T06:55:02.688Z,4.68
2022-12-07T06:56:02.778Z,4.6
2022-12-07T06:57:02.684Z,4.4
2022-12-07T06:58:02.706Z,4.45
2022-12-07T06:59:02.677Z,4.65
2022-12-07T07:00:03.198Z,4.62
2022-12-07T07:01:02.735Z,4.72
2022-12-07T07:02:02.815Z,4.78
2022-12-07T07:03:02.706Z,4.95
2022-12-07T07:04:02.680Z,4.98
2022-12-07T07:05:02.695Z,5.13
2022-12-07T07:06:02.682Z,5.1
2022-12-07T07:07:02.683Z,4.99
2022-12-07T07:08:21.771Z,5.01
2022-12-07T07:09:02.777Z,5.16
2022-12-07T07:10:02.971Z,5.13
2022-12-07T07:11:02.705Z,5.13
2022-12-07T07:12:02.699Z,5.2
2022-12-07T07:13:02.714Z,5.21
2022-12-07T07:14:02.690Z,5.27
2022-12-07T07:15:02.702Z,5.37
2022-12-07T07:16:02.701Z,5.42
2022-12-07T07:17:02.773Z,5.42
2022-12-07T07:18:07.516Z,5.64
2022-12-07T07:19:02.695Z,5.67
2022-12-07T07:20:02.961Z,5.54
2022-12-07T07:21:02.703Z,5.54
2022-12-07T07:22:02.699Z,5.47
2022-12-07T07:23:02.711Z,5.56
2022-12-07T07:24:02.710Z,5.63
2022-12-07T07:25:02.696Z,5.57
2022-12-07T07:26:02.678Z,5.71
2022-12-07T07:27:02.691Z,5.63
2022-12-07T07:28:02.703Z,5.63
2022-12-07T07:29:02.700Z,5.71
2022-12-07T07:30:02.968Z,5.82
2022-12-07T07:31:02.815Z,5.62
2022-12-07T07:32:06.692Z,5.36
2022-12-07T07:33:02.712Z,5.36
2022-12-07T07:34:02.693Z,5.49
2022-12-07T07:35:02.700Z,5.8
2022-12-07T07:36:02.715Z,5.72
2022-12-07T07:37:02.697Z,5.68
2022-12-07T07:38:02.701Z,5.58
2022-12-07T07:39:02.698Z,5.31
2022-12-07T07:40:03.006Z,5.47
2022-12-07T07:41:02.706Z,5.62
2022-12-07T07:42:02.696Z,5.9
2022-12-07T07:43:02.696Z,5.99
2022-12-07T07:44:02.683Z,5.66
2022-12-07T07:45:02.734Z,5.61
2022-12-07T07:46:02.800Z,5.43
2022-12-07T07:47:02.692Z,5.68
2022-12-07T07:48:02.707Z,5.47
2022-12-07T07:49:02.719Z,5.35
2022-12-07T07:50:02.972Z,5.4
2022-12-07T07:51:02.698Z,5.19
2022-12-07T07:52:02.687Z,5.19
2022-12-07T07:53:02.715Z,5.27
2022-12-07T07:54:02.697Z,5.29
2022-12-07T07:55:02.695Z,5.64
2022-12-07T07:56:02.699Z,5.53
2022-12-07T07:57:02.683Z,5.58
2022-12-07T07:58:02.716Z,5.57
2022-12-07T07:59:02.689Z,5.84
2022-12-07T08:00:03.026Z,5.51
2022-12-07T08:01:02.745Z,5.44
2022-12-07T08:02:02.759Z,5.63
2022-12-07T08:03:02.790Z,5.51
2022-12-07T08:04:02.701Z,5.35
2022-12-07T08:05:02.761Z,5.84
2022-12-07T08:06:02.679Z,5.62
2022-12-07T08:07:02.681Z,5.65
2022-12-07T08:08:02.782Z,5.69
2022-12-07T08:09:02.720Z,5.61
2022-12-07T08:10:03.183Z,5.4
2022-12-07T08:11:02.747Z,5.39
2022-12-07T08:12:02.681Z,5.41
2022-12-07T08:13:02.715Z,5.41
2022-12-07T08:14:02.714Z,5.04
2022-12-07T08:15:02.684Z,5.22
2022-12-07T08:16:02.799Z,5.32
2022-12-07T08:17:02.689Z,5.3
2022-12-07T08:18:02.702Z,5.16
2022-12-07T08:19:02.711Z,5.27
2022-12-07T08:20:03.035Z,5.59
2022-12-07T08:21:02.690Z,5.47
2022-12-07T08:22:02.705Z,5.53
2022-12-07T08:23:02.709Z,5.71
2022-12-07T08:24:02.692Z,5.48
2022-12-07T08:25:02.705Z,5.55
2022-12-07T08:26:02.700Z,5.69
2022-12-07T08:27:02.704Z,5.75
2022-12-07T08:28:02.715Z,5.67
2022-12-07T08:29:02.702Z,5.48
2022-12-07T08:30:03.102Z,5.48
2022-12-07T08:31:02.782Z,5.54
2022-12-07T08:32:07.986Z,5.56
2022-12-07T08:33:02.724Z,5.52
2022-12-07T08:34:02.692Z,5.6
2022-12-07T08:35:02.715Z,5.8
2022-12-07T08:36:02.693Z,5.66
2022-12-07T08:37:02.722Z,5.81
2022-12-07T08:38:02.703Z,5.69
2022-12-07T08:39:30.497Z,5.74
2022-12-07T08:40:02.945Z,5.81
2022-12-07T08:41:02.697Z,5.55
2022-12-07T08:42:02.682Z,5.59
2022-12-07T08:43:02.713Z,5.39
2022-12-07T08:44:02.690Z,5.63
2022-12-07T08:45:02.694Z,5.7
2022-12-07T08:46:02.744Z,5.75
2022-12-07T08:47:02.696Z,5.48
2022-12-07T08:48:02.715Z,5.59
2022-12-07T08:49:02.697Z,5.55
2022-12-07T08:50:03.005Z,5.54
2022-12-07T08:51:02.697Z,5.72
2022-12-07T08:52:02.694Z,5.29
2022-12-07T08:53:02.703Z,5.33
2022-12-07T08:54:02.712Z,5.16
2022-12-07T08:55:02.691Z,5.25
2022-12-07T08:56:02.766Z,5.37
2022-12-07T08:57:02.680Z,5.37
2022-12-07T08:58:02.713Z,5.27
2022-12-07T08:59:02.688Z,5.4
2022-12-07T09:00:02.996Z,5.28
2022-12-07T09:01:02.701Z,5.36
2022-12-07T09:02:02.801Z,5.1
2022-12-07T09:03:02.717Z,5.27
2022-12-07T09:04:02.693Z,5.29
2022-12-07T09:05:02.697Z,5.37
2022-12-07T09:06:02.839Z,5.35
2022-12-07T09:07:02.851Z,5.3
2022-12-07T09:08:02.772Z,5.4
2022-12-07T09:09:02.677Z,5.12
2022-12-07T09:10:02.911Z,5.28
2022-12-07T09:11:02.677Z,5.17
2022-12-07T09:12:02.677Z,5.29
2022-12-07T09:13:02.717Z,5.21
2022-12-07T09:14:02.678Z,5.26
2022-12-07T09:15:02.680Z,5.32
2022-12-07T09:16:02.786Z,5.41
2022-12-07T09:17:02.676Z,5.08
2022-12-07T09:18:02.704Z,5.11
2022-12-07T09:19:02.685Z,5.18
2022-12-07T09:20:02.932Z,5.12
2022-12-07T09:21:02.694Z,5.07
2022-12-07T09:22:02.682Z,5.16
2022-12-07T09:23:02.705Z,5.19
2022-12-07T09:24:02.701Z,5.13
2022-12-07T09:25:02.728Z,5.4
2022-12-07T09:26:07.443Z,5.34
2022-12-07T09:27:02.704Z,5.29
2022-12-07T09:28:02.698Z,5.43
2022-12-07T09:29:02.704Z,5.3
2022-12-07T09:30:03.069Z,5.16
2022-12-07T09:31:23.227Z,5.17
2022-12-07T09:32:05.455Z,5.17
2022-12-07T09:33:02.710Z,5
2022-12-07T09:34:02.821Z,5.15
2022-12-07T09:35:02.687Z,5.19
2022-12-07T09:36:02.694Z,5.02
2022-12-07T09:37:02.684Z,5.25
2022-12-07T09:38:02.705Z,5.14
2022-12-07T09:39:02.717Z,5.03
2022-12-07T09:40:03.088Z,5.05
2022-12-07T09:41:02.685Z,4.96
2022-12-07T09:42:02.696Z,4.8
2022-12-07T09:43:02.818Z,5.02
2022-12-07T09:44:02.687Z,4.99
2022-12-07T09:45:02.699Z,4.96
2022-12-07T09:46:02.773Z,5.03
2022-12-07T09:47:02.705Z,5.07
2022-12-07T09:48:02.710Z,4.98
2022-12-07T09:49:02.680Z,4.98
2022-12-07T09:50:02.948Z,4.94
2022-12-07T09:51:02.699Z,5.07
2022-12-07T09:52:02.724Z,5.16
2022-12-07T09:53:02.719Z,5.48
2022-12-07T09:54:02.702Z,5.55
2022-12-07T09:55:02.914Z,5.76
2022-12-07T09:56:02.716Z,5.83
2022-12-07T09:57:02.695Z,5.97
2022-12-07T09:58:02.706Z,5.81
2022-12-07T09:59:02.719Z,5.91
2022-12-07T10:00:02.701Z,5.6
2022-12-07T10:01:02.704Z,5.57
2022-12-07T10:02:02.903Z,5.4
2022-12-07T10:03:02.699Z,5.38
2022-12-07T10:04:02.699Z,5.36
2022-12-07T10:05:03.074Z,5.59
2022-12-07T10:06:02.695Z,5.67
2022-12-07T10:07:02.700Z,5.51
2022-12-07T10:08:02.797Z,5.43
2022-12-07T10:09:02.696Z,5.71
2022-12-07T10:10:02.687Z,5.82
2022-12-07T10:11:02.693Z,5.61
2022-12-07T10:12:02.695Z,5.65
2022-12-07T10:13:02.687Z,5.63
2022-12-07T10:14:02.676Z,5.58
2022-12-07T10:15:07.720Z,5.42
2022-12-07T10:16:06.994Z,5.42
2022-12-07T10:17:02.692Z,5.78
2022-12-07T10:18:02.712Z,5.32
2022-12-07T10:19:02.676Z,5.53
2022-12-07T10:20:02.687Z,5.6
2022-12-07T10:21:02.705Z,5.42
2022-12-07T10:22:02.693Z,5.55
2022-12-07T10:23:02.702Z,5.5
2022-12-07T10:24:02.679Z,5.52
2022-12-07T10:25:03.056Z,5.64
2022-12-07T10:26:02.700Z,5.39
2022-12-07T10:27:02.693Z,5.44
2022-12-07T10:28:02.716Z,5.53
2022-12-07T10:29:02.681Z,5.47
2022-12-07T10:30:02.683Z,5.39
2022-12-07T10:31:02.789Z,5.25
2022-12-07T10:32:02.737Z,5.2
2022-12-07T10:33:02.692Z,5.36
2022-12-07T10:34:02.698Z,5.47
2022-12-07T10:35:02.964Z,5.77
2022-12-07T10:36:02.697Z,5.63
2022-12-07T10:37:02.699Z,5.63
2022-12-07T10:38:02.722Z,5.59
2022-12-07T10:39:02.698Z,5.13
2022-12-07T10:40:02.677Z,5.42
2022-12-07T10:41:02.689Z,5.47
2022-12-07T10:42:02.690Z,5.43
2022-12-07T10:43:02.703Z,5.24
2022-12-07T10:44:02.683Z,5.33
2022-12-07T10:45:03.080Z,5.12
2022-12-07T10:46:04.535Z,5.04
2022-12-07T10:47:02.735Z,5.12
2022-12-07T10:48:02.715Z,5.36
2022-12-07T10:49:02.715Z,5.59
2022-12-07T10:50:02.703Z,5.52
2022-12-07T10:51:02.692Z,5.24
2022-12-07T10:52:02.943Z,5.42
2022-12-07T10:53:02.702Z,5.17
2022-12-07T10:54:02.697Z,5.18
2022-12-07T10:55:03.002Z,5.15
2022-12-07T10:56:02.692Z,5.3
2022-12-07T10:57:02.692Z,5.05
2022-12-07T10:58:02.699Z,5.17
2022-12-07T10:59:02.692Z,5.18
2022-12-07T11:00:02.715Z,5.16
2022-12-07T11:01:02.757Z,5.13
2022-12-07T11:02:02.727Z,5.37
2022-12-07T11:03:02.709Z,5.17
2022-12-07T11:04:02.688Z,5.08
2022-12-07T11:05:02.943Z,5.15
2022-12-07T11:06:02.695Z,5.29
2022-12-07T11:07:02.694Z,5.37
2022-12-07T11:08:02.797Z,5.38
2022-12-07T11:09:02.692Z,5.35
2022-12-07T11:10:20.544Z,5.5
2022-12-07T11:11:02.690Z,5.38
2022-12-07T11:12:02.696Z,5.38
2022-12-07T11:13:02.703Z,5.11
2022-12-07T11:14:02.696Z,5.36
2022-12-07T11:15:02.693Z,5.42
2022-12-07T11:16:02.778Z,5.45
2022-12-07T11:17:02.695Z,5.25
2022-12-07T11:18:02.699Z,5.3
2022-12-07T11:19:02.693Z,5.4
2022-12-07T11:20:03.029Z,5.5
2022-12-07T11:21:02.678Z,5.6
2022-12-07T11:22:02.679Z,5.37
2022-12-07T11:23:02.712Z,5.49
2022-12-07T11:24:02.697Z,5.19
2022-12-07T11:25:02.689Z,5.56
2022-12-07T11:26:02.680Z,5.6
2022-12-07T11:27:02.678Z,5.34
2022-12-07T11:28:02.706Z,5.47
2022-12-07T11:29:02.707Z,5.58
2022-12-07T11:30:03.021Z,5.67
2022-12-07T11:31:02.925Z,5.71
2022-12-07T11:32:02.728Z,5.96
2022-12-07T11:33:02.703Z,6.15
2022-12-07T11:34:02.683Z,6.26
2022-12-07T11:35:02.693Z,6.14
2022-12-07T11:36:02.773Z,6.25
2022-12-07T11:37:02.681Z,6.07
2022-12-07T11:38:02.702Z,6.14
2022-12-07T11:39:02.675Z,6.07
2022-12-07T11:40:02.964Z,5.97
2022-12-07T11:41:02.690Z,5.98
2022-12-07T11:42:02.692Z,5.98
2022-12-07T11:43:02.703Z,6.47
2022-12-07T11:44:02.690Z,6.45
2022-12-07T11:45:02.689Z,6.36
2022-12-07T11:46:02.705Z,6.37
2022-12-07T11:47:02.773Z,6.46
2022-12-07T11:48:02.709Z,6.42
2022-12-07T11:49:02.695Z,6.56
2022-12-07T11:50:02.704Z,6.48
2022-12-07T11:51:02.690Z,6.16
2022-12-07T11:52:02.697Z,6.37
2022-12-07T11:53:02.706Z,6.23
2022-12-07T11:54:02.695Z,6.45
2022-12-07T11:55:02.698Z,6.42
2022-12-07T11:56:02.691Z,6.53
2022-12-07T11:57:02.680Z,6.35
2022-12-07T11:58:02.699Z,6.37
2022-12-07T11:59:02.675Z,6.22
2022-12-07T12:00:03.040Z,6.2
2022-12-07T12:01:02.697Z,6.04
2022-12-07T12:02:02.743Z,6.22
2022-12-07T12:03:02.768Z,6.09
2022-12-07T12:04:02.691Z,6.26
2022-12-07T12:05:02.684Z,6.19
2022-12-07T12:06:02.690Z,6.25
2022-12-07T12:10:03.161Z,6.12
2022-12-07T12:11:02.697Z,6.06
2022-12-07T12:14:33.093Z,6.16
2022-12-07T12:15:03.704Z,5.98
2022-12-07T12:16:02.726Z,5.84
2022-12-07T12:17:02.683Z,5.97
2022-12-07T12:18:02.699Z,6.05
2022-12-07T12:19:02.697Z,6.05
2022-12-07T12:20:02.687Z,5.81
2022-12-07T12:21:02.693Z,5.68
2022-12-07T12:22:02.697Z,5.53
2022-12-07T12:23:02.795Z,5.7
2022-12-07T12:24:02.691Z,5.83
2022-12-07T12:25:02.961Z,6.18
2022-12-07T12:26:02.756Z,6.27
2022-12-07T12:27:02.698Z,5.73
2022-12-07T12:28:02.684Z,5.66
2022-12-07T12:29:02.676Z,5.73
2022-12-07T12:30:02.687Z,5.85
2022-12-07T12:31:02.700Z,6.1
2022-12-07T12:32:02.750Z,6.01
2022-12-07T12:33:02.717Z,5.74
2022-12-07T12:34:02.675Z,5.81
2022-12-07T12:35:03.333Z,5.89
2022-12-07T12:36:02.762Z,5.85
2022-12-07T12:37:02.680Z,5.84
2022-12-07T12:38:02.710Z,5.82
2022-12-07T12:39:02.686Z,5.61
2022-12-07T12:40:02.684Z,5.6
2022-12-07T12:41:02.681Z,5.58
2022-12-07T12:42:02.714Z,5.73
2022-12-07T12:43:02.694Z,5.71
2022-12-07T12:44:02.689Z,5.56
2022-12-07T12:45:02.958Z,5.54
2022-12-07T12:46:02.778Z,5.61
2022-12-07T12:47:02.675Z,5.58
2022-12-07T12:48:02.717Z,5.58
2022-12-07T12:49:02.691Z,5.59
2022-12-07T12:50:02.676Z,5.5
2022-12-07T12:51:02.676Z,5.43
2022-12-07T12:52:05.498Z,5.29
2022-12-07T12:53:02.714Z,5.28
2022-12-07T12:54:02.703Z,5.31
2022-12-07T12:55:03.029Z,5.43
2022-12-07T12:56:02.691Z,5.54
2022-12-07T12:57:03.583Z,5.46
2022-12-07T12:58:02.708Z,5.39
2022-12-07T12:59:02.697Z,5.53
2022-12-07T13:00:02.684Z,5.42
2022-12-07T13:01:02.762Z,5.23
2022-12-07T13:02:02.742Z,5.33
2022-12-07T13:03:02.719Z,5.22
2022-12-07T13:04:02.677Z,5.03
2022-12-07T13:05:03.236Z,4.98
2022-12-07T13:06:02.687Z,5
2022-12-07T13:07:02.759Z,5.04
2022-12-07T13:08:02.826Z,4.99
2022-12-07T13:09:03.049Z,4.98
2022-12-07T13:10:02.679Z,5.08
2022-12-07T13:11:02.675Z,4.88
2022-12-07T13:12:02.693Z,4.79
2022-12-07T13:13:02.705Z,4.82
2022-12-07T13:14:02.682Z,4.79
2022-12-07T13:15:02.980Z,4.92
2022-12-07T13:16:02.701Z,5.05
2022-12-07T13:17:02.758Z,4.81
2022-12-07T13:18:02.715Z,4.66
2022-12-07T13:19:02.688Z,4.76
2022-12-07T13:20:02.752Z,4.95
2022-12-07T13:21:02.681Z,4.88
2022-12-07T13:22:02.673Z,4.88
2022-12-07T13:23:02.699Z,5.07
2022-12-07T13:24:02.679Z,5.22
2022-12-07T13:25:02.993Z,5.24
2022-12-07T13:26:02.697Z,5.32
2022-12-07T13:27:02.682Z,5.44
2022-12-07T13:28:02.698Z,5.01